Time;durP1;ratioP1;P1;durP2;ratioP2;P2;SDS_P1;SDS_P2;PMS_P1;PMS_P2;Temp;Humidity;BMP_temperature;BMP_pressure;BME280_temperature;BME280_humidity;BME280_pressure;Samples;Min_cycle;Max_cycle;Signal;HPM_P1;HPM_P2
2023/07/25 00:40:04;;;;;;;11.30;8.33;;;21.50;93.00;;;;;;5884177;23;20355;-87
2023/07/25 01:15:19;;;;;;;9.87;8.13;;;21.00;97.00;;;;;;5686317;24;20758;-84
2023/07/25 01:41:05;;;;;;;8.80;7.70;;;21.00;96.90;;;;;;5667169;24;20316;-85
2023/07/25 02:11:19;;;;;;;10.00;8.50;;;20.50;99.90;;;;;;5799741;23;20174;-83
2023/07/25 02:41:55;;;;;;;10.33;8.90;;;19.80;99.90;;;;;;5730566;24;20193;-85
2023/07/25 03:22:31;;;;;;;10.67;8.83;;;19.70;99.90;;;;;;5727486;24;20608;-85
2023/07/25 03:47:18;;;;;;;11.40;9.53;;;19.90;99.90;;;;;;5656738;24;20722;-85
2023/07/25 04:07:36;;;;;;;11.97;9.37;;;20.30;99.90;;;;;;5665288;24;20508;-88
2023/07/25 04:28:33;;;;;;;11.30;9.30;;;20.80;99.90;;;;;;5799674;24;20766;-89
2023/07/25 04:53:50;;;;;;;9.10;7.47;;;22.20;91.50;;;;;;5684017;24;20238;-85
2023/07/25 05:14:03;;;;;;;8.82;5.75;;;23.20;86.00;;;;;;5508805;25;20193;-86
2023/07/25 05:39:42;;;;;;;7.47;5.43;;;23.60;84.20;;;;;;5732131;24;20271;-84
2023/07/25 05:44:16;;;;;;;6.53;4.53;;;23.80;82.90;;;;;;5749923;24;20398;-86
2023/07/25 06:05:03;;;;;;;6.43;4.30;;;23.10;83.90;;;;;;6049803;23;20184;-85
2023/07/25 06:25:15;;;;;;;4.57;3.97;;;23.30;84.10;;;;;;5771117;24;20174;-87
2023/07/25 06:50:02;;;;;;;5.65;3.90;;;23.90;82.00;;;;;;5749049;24;20764;-86
2023/07/25 07:46:32;;;;;;;3.45;2.80;;;25.20;76.40;;;;;;5588588;24;20218;-82
2023/07/25 08:31:53;;;;;;;2.13;1.92;;;25.40;66.50;;;;;;5735597;24;20181;-88
2023/07/25 09:43:07;;;;;;;2.47;2.03;;;26.60;60.10;;;;;;5837976;23;20205;-86
2023/07/25 10:13:28;;;;;;;3.38;1.90;;;25.60;58.20;;;;;;5795968;23;20234;-85
2023/07/25 10:48:55;;;;;;;1.75;1.65;;;26.20;56.90;;;;;;5658809;24;20337;-86
2023/07/25 11:39:35;;;;;;;3.40;3.10;;;26.60;54.10;;;;;;5556911;24;20514;-86
2023/07/25 13:36:01;;;;;;;1.85;1.70;;;29.10;48.60;;;;;;5741668;23;20644;-83
2023/07/25 13:51:56;;;;;;;1.85;1.70;;;28.70;48.20;;;;;;5773012;24;20664;-82
2023/07/25 15:07:54;;;;;;;2.65;2.42;;;26.90;48.70;;;;;;5891296;23;20690;-86
2023/07/25 15:28:18;;;;;;;3.53;2.58;;;26.10;49.30;;;;;;6077202;23;20433;-87
2023/07/25 16:34:15;;;;;;;3.85;3.40;;;24.30;52.30;;;;;;6054290;23;20198;-85
2023/07/25 16:59:26;;;;;;;4.15;3.72;;;23.90;53.10;;;;;;6054193;22;20158;-82
2023/07/25 17:30:00;;;;;;;5.68;3.90;;;23.30;54.20;;;;;;6081016;23;20185;-86
2023/07/25 18:35:42;;;;;;;5.03;3.10;;;21.80;61.90;;;;;;5633802;24;20258;-86
2023/07/25 18:51:07;;;;;;;4.07;3.23;;;21.20;72.40;;;;;;5699109;24;20169;-87
2023/07/25 19:11:31;;;;;;;3.90;3.57;;;20.40;82.60;;;;;;5684037;24;20255;-84
2023/07/25 19:36:27;;;;;;;4.90;3.77;;;20.50;81.10;;;;;;5583102;24;20812;-85
2023/07/25 20:02:08;;;;;;;4.20;3.87;;;20.60;79.00;;;;;;5724190;24;20278;-84
2023/07/25 20:37:45;;;;;;;8.23;4.97;;;20.20;80.00;;;;;;5851345;23;20249;-86
2023/07/25 21:02:56;;;;;;;4.57;4.00;;;19.40;82.60;;;;;;5998957;23;20272;-84
2023/07/25 21:33:23;;;;;;;7.07;4.20;;;19.00;83.80;;;;;;5771431;24;20190;-85
2023/07/25 23:14:54;;;;;;;6.93;5.30;;;17.90;90.70;;;;;;6121706;22;20186;-85
2023/07/25 23:40:08;;;;;;;7.20;5.70;;;17.70;92.50;;;;;;5986924;23;20210;-84
2023/07/25 23:59:55;;;;;;;8.70;5.23;;;17.50;93.80;;;;;;5730986;24;20583;-86
